Time;durP1;ratioP1;P1;durP2;ratioP2;P2;SDS_P1;SDS_P2;PMS_P1;PMS_P2;Temp;Humidity;BMP_temperature;BMP_pressure;BME280_temperature;BME280_humidity;BME280_pressure;Samples;Min_cycle;Max_cycle;Signal;HPM_P1;HPM_P2
2023/10/11 00:02:56;;;;;;;17.77;7.22;;;;;;;21.22;72.27;101480.31;4989863;28;20034;-44
2023/10/11 00:05:22;;;;;;;18.80;6.78;;;;;;;21.38;71.60;101479.06;4990421;28;20043;-44
2023/10/11 00:07:48;;;;;;;17.90;7.28;;;;;;;21.25;71.92;101480.22;4989512;28;20401;-46
2023/10/11 00:10:19;;;;;;;19.73;7.10;;;;;;;21.37;71.53;101474.66;4990155;28;20049;-44
2023/10/11 00:12:45;;;;;;;20.83;7.28;;;;;;;21.30;71.66;101478.34;4989610;28;20038;-46
2023/10/11 00:15:11;;;;;;;18.40;7.00;;;;;;;21.12;72.72;101470.75;4990116;28;20026;-45
2023/10/11 00:17:36;;;;;;;17.02;6.93;;;;;;;21.34;71.70;101478.28;4989878;28;20562;-45
2023/10/11 00:20:19;;;;;;;20.67;7.38;;;;;;;21.32;71.63;101485.38;4990433;28;20424;-44
2023/10/11 00:22:45;;;;;;;19.40;7.17;;;;;;;21.20;72.14;101482.97;4989567;28;20034;-45
2023/10/11 00:25:12;;;;;;;19.40;7.38;;;;;;;21.13;72.53;101477.78;4990927;28;20037;-43
2023/10/11 00:27:37;;;;;;;19.63;7.30;;;;;;;21.26;71.65;101485.50;4989486;28;20039;-45
2023/10/11 00:30:03;;;;;;;19.42;7.25;;;;;;;21.27;71.92;101475.78;4990293;28;20030;-44
2023/10/11 00:32:29;;;;;;;19.80;7.15;;;;;;;21.31;71.59;101472.13;4990361;28;20057;-44
2023/10/11 00:34:54;;;;;;;17.73;7.57;;;;;;;21.31;71.57;101469.50;4989614;28;20108;-41
2023/10/11 00:37:20;;;;;;;20.20;7.35;;;;;;;21.39;71.35;101467.56;4989642;28;20081;-45
2023/10/11 00:39:45;;;;;;;17.08;7.30;;;;;;;21.37;70.92;101466.72;4987850;28;20567;-49
2023/10/11 00:42:11;;;;;;;21.55;7.47;;;;;;;21.16;72.38;101464.53;4989161;28;20042;-47
2023/10/11 00:44:36;;;;;;;16.42;7.13;;;;;;;21.04;72.63;101453.22;4989462;28;20106;-49
2023/10/11 00:47:06;;;;;;;15.77;7.28;;;;;;;21.20;71.84;101464.41;4989670;28;20043;-44
2023/10/11 00:49:36;;;;;;;19.13;7.70;;;;;;;21.18;71.78;101460.03;4989456;28;20038;-45
2023/10/11 00:52:04;;;;;;;18.70;7.35;;;;;;;21.02;72.16;101455.03;4988662;28;20082;-47
2023/10/11 00:54:30;;;;;;;16.70;8.00;;;;;;;21.04;72.18;101445.25;4989513;28;20440;-44
2023/10/11 00:56:56;;;;;;;21.98;7.63;;;;;;;21.26;71.37;101450.16;4989321;28;20030;-45
2023/10/11 00:59:22;;;;;;;22.50;7.88;;;;;;;21.12;71.94;101454.84;4989943;28;20433;-47
2023/10/11 01:01:50;;;;;;;19.08;7.53;;;;;;;21.16;71.71;101454.78;4989477;28;20038;-45
2023/10/11 01:04:16;;;;;;;19.77;7.38;;;;;;;21.34;70.94;101457.06;4989858;28;20513;-44
2023/10/11 01:06:41;;;;;;;16.80;6.68;;;;;;;21.31;70.65;101453.56;4989427;28;20057;-47
2023/10/11 01:09:17;;;;;;;20.70;7.70;;;;;;;21.02;71.47;101443.56;4990260;28;20489;-43
2023/10/11 01:11:43;;;;;;;22.13;7.75;;;;;;;21.21;71.46;101439.66;4989677;28;20046;-45
2023/10/11 01:14:10;;;;;;;19.05;7.68;;;;;;;21.03;72.29;101445.31;4989638;28;20149;-47
2023/10/11 01:16:35;;;;;;;21.20;7.75;;;;;;;20.99;73.10;101441.84;4990255;28;20050;-45
2023/10/11 01:19:01;;;;;;;21.60;7.97;;;;;;;21.16;71.55;101441.53;4992966;28;20062;-46
2023/10/11 01:21:32;;;;;;;20.00;7.88;;;;;;;21.19;71.70;101441.47;4992883;28;20121;-45
2023/10/11 01:23:58;;;;;;;19.65;7.57;;;;;;;21.11;71.96;101437.16;4989891;28;20038;-43
2023/10/11 01:26:23;;;;;;;17.85;7.75;;;;;;;21.21;71.42;101431.69;4992801;28;20105;-46
2023/10/11 01:28:48;;;;;;;17.70;7.60;;;;;;;21.17;71.44;101437.06;4992652;28;20042;-44
2023/10/11 01:31:16;;;;;;;21.95;7.32;;;;;;;21.13;71.35;101432.72;4992860;28;20033;-46
2023/10/11 01:33:44;;;;;;;19.90;7.30;;;;;;;21.11;71.72;101434.53;4992167;28;20048;-44
2023/10/11 01:36:21;;;;;;;23.92;7.82;;;;;;;21.12;71.27;101423.88;4993100;28;20523;-45
2023/10/11 01:38:47;;;;;;;21.02;7.95;;;;;;;21.03;71.73;101422.31;4992439;28;20038;-47
2023/10/11 01:41:19;;;;;;;18.65;7.80;;;;;;;21.01;71.93;101418.81;4992340;28;20042;-46
2023/10/11 01:43:49;;;;;;;18.95;8.20;;;;;;;20.98;72.11;101412.72;4991677;28;20117;-44
2023/10/11 01:46:16;;;;;;;18.23;8.02;;;;;;;20.69;73.42;101410.66;4992760;28;20040;-48
2023/10/11 01:48:45;;;;;;;20.80;8.82;;;;;;;20.89;73.22;101412.91;4992372;28;20030;-44
2023/10/11 01:51:12;;;;;;;24.63;8.68;;;;;;;20.82;73.57;101398.03;4992808;28;20042;-45
2023/10/11 01:53:37;;;;;;;20.63;8.02;;;;;;;20.72;73.67;101388.53;4991874;28;20577;-44
2023/10/11 01:56:03;;;;;;;22.90;9.23;;;;;;;20.67;74.17;101383.34;4992418;28;20121;-44
2023/10/11 01:58:29;;;;;;;23.55;8.48;;;;;;;20.73;74.02;101388.50;4992293;28;20073;-47
2023/10/11 02:00:55;;;;;;;21.05;8.50;;;;;;;20.67;74.26;101378.88;4991816;28;20062;-45
2023/10/11 02:03:20;;;;;;;19.42;8.27;;;;;;;20.75;74.21;101391.97;4992040;28;20492;-46
2023/10/11 02:05:50;;;;;;;22.25;8.30;;;;;;;20.59;74.58;101382.59;4991954;28;20537;-44
2023/10/11 02:08:17;;;;;;;20.98;7.93;;;;;;;20.84;72.99;101390.94;4991946;28;20092;-47
2023/10/11 02:10:44;;;;;;;22.10;8.15;;;;;;;20.54;74.90;101395.94;4991561;28;20208;-44
2023/10/11 02:13:10;;;;;;;15.55;7.57;;;;;;;20.79;73.66;101401.63;4992331;28;20089;-42
2023/10/11 02:15:35;;;;;;;23.95;8.35;;;;;;;20.72;73.72;101400.00;4991998;28;20034;-44
2023/10/11 02:18:07;;;;;;;19.70;7.90;;;;;;;20.79;73.39;101392.81;4992100;28;20034;-45
2023/10/11 02:20:34;;;;;;;26.67;8.15;;;;;;;20.53;74.17;101385.38;4992026;28;20092;-44
2023/10/11 02:23:00;;;;;;;22.67;7.95;;;;;;;20.61;74.17;101386.09;4991996;28;20047;-47
2023/10/11 02:25:26;;;;;;;28.23;8.60;;;;;;;20.31;75.39;101384.00;4991858;28;20121;-44
2023/10/11 02:27:53;;;;;;;25.33;8.77;;;;;;;20.42;75.20;101385.59;4991352;28;20130;-48
2023/10/11 02:30:24;;;;;;;23.30;8.63;;;;;;;20.43;74.79;101387.31;4991875;28;20053;-46
2023/10/11 02:33:00;;;;;;;21.55;8.07;;;;;;;20.55;74.16;101383.56;4991291;28;20120;-44
2023/10/11 02:35:31;;;;;;;20.25;8.52;;;;;;;20.59;73.94;101374.66;4991666;28;20035;-45
2023/10/11 02:37:58;;;;;;;22.90;8.48;;;;;;;20.65;73.74;101370.09;4991323;28;20042;-44
2023/10/11 02:40:24;;;;;;;20.88;8.55;;;;;;;20.72;73.28;101380.56;4991652;28;20035;-46
2023/10/11 02:42:51;;;;;;;21.70;8.05;;;;;;;20.53;73.73;101375.66;4991087;28;20551;-45
2023/10/11 02:45:21;;;;;;;20.67;8.15;;;;;;;20.69;73.72;101380.63;4991559;28;20030;-44
2023/10/11 02:47:47;;;;;;;20.25;8.20;;;;;;;20.70;73.44;101379.72;4989692;28;20069;-46
2023/10/11 02:50:13;;;;;;;21.83;7.85;;;;;;;20.72;73.04;101372.63;4991421;28;20528;-44
2023/10/11 02:52:39;;;;;;;19.02;7.82;;;;;;;20.67;73.22;101384.16;4990938;28;20527;-43
2023/10/11 02:55:21;;;;;;;20.15;8.73;;;;;;;20.44;74.31;101381.09;4991336;28;20034;-44
2023/10/11 02:57:48;;;;;;;22.15;9.05;;;;;;;20.49;74.56;101370.44;4990814;28;20038;-43
2023/10/11 03:00:23;;;;;;;19.55;8.60;;;;;;;20.51;73.94;101371.28;4990190;28;20060;-43
2023/10/11 03:02:55;;;;;;;20.80;8.18;;;;;;;20.63;73.35;101378.97;4989021;28;20049;-45
2023/10/11 03:05:27;;;;;;;21.58;9.32;;;;;;;20.57;73.63;101374.66;4991246;28;20559;-45
2023/10/11 03:10:43;;;;;;;22.27;8.43;;;;;;;20.52;74.04;101368.59;4990870;28;20037;-43
2023/10/11 03:13:19;;;;;;;20.05;8.45;;;;;;;20.49;74.11;101370.44;4991113;28;20034;-45
2023/10/11 03:15:46;;;;;;;24.45;7.97;;;;;;;20.63;73.36;101369.25;4990799;28;20034;-43
2023/10/11 03:18:12;;;;;;;19.33;8.13;;;;;;;20.30;74.85;101354.00;4990926;28;20041;-43
2023/10/11 03:20:37;;;;;;;20.95;8.65;;;;;;;20.39;74.26;101345.03;4990386;28;20046;-44
2023/10/11 03:23:10;;;;;;;22.88;8.45;;;;;;;20.59;73.39;101345.50;4990846;28;20030;-47
2023/10/11 03:25:37;;;;;;;22.75;9.05;;;;;;;20.30;74.66;101353.13;4990867;28;20037;-44
2023/10/11 03:28:04;;;;;;;22.75;8.88;;;;;;;20.42;74.16;101352.94;4990833;28;20042;-44
2023/10/11 03:30:35;;;;;;;20.27;8.32;;;;;;;20.46;74.50;101358.13;4991558;28;20708;-42
2023/10/11 03:33:01;;;;;;;21.50;9.07;;;;;;;20.53;74.30;101362.41;4990931;28;20110;-45
2023/10/11 03:35:27;;;;;;;23.73;9.07;;;;;;;20.44;74.46;101346.69;4991172;28;20027;-45
2023/10/11 03:37:58;;;;;;;23.23;9.20;;;;;;;20.44;74.15;101354.63;4991206;28;20092;-45
2023/10/11 03:40:34;;;;;;;20.98;8.65;;;;;;;20.58;73.62;101355.22;4990970;28;20030;-44
2023/10/11 03:43:11;;;;;;;21.05;8.60;;;;;;;20.60;73.43;101352.56;4991267;28;20291;-45
2023/10/11 03:45:39;;;;;;;22.67;9.07;;;;;;;20.27;75.22;101348.75;4990531;28;20580;-43
2023/10/11 03:48:09;;;;;;;22.45;8.30;;;;;;;20.48;74.44;101348.38;4990971;28;20436;-46
2023/10/11 03:50:37;;;;;;;23.33;9.48;;;;;;;20.14;75.74;101356.03;4989897;28;20374;-46
2023/10/11 03:53:10;;;;;;;26.13;9.30;;;;;;;20.38;75.14;101353.88;4990159;28;20401;-48
2023/10/11 03:55:46;;;;;;;19.60;8.63;;;;;;;20.58;74.85;101343.75;4989919;28;20037;-45
2023/10/11 03:58:22;;;;;;;23.27;8.88;;;;;;;20.71;74.06;101357.63;4990420;28;20030;-45
2023/10/11 04:00:48;;;;;;;24.65;8.90;;;;;;;20.55;74.88;101351.78;4990084;28;20054;-47
2023/10/11 04:03:17;;;;;;;23.33;9.07;;;;;;;20.72;73.80;101346.13;4990191;28;20031;-43
2023/10/11 04:05:45;;;;;;;26.60;9.50;;;;;;;20.71;74.14;101342.59;4989713;28;20041;-46
2023/10/11 04:08:12;;;;;;;20.25;8.88;;;;;;;20.64;74.45;101349.81;4990064;28;20038;-43
2023/10/11 04:10:46;;;;;;;21.80;9.07;;;;;;;20.73;74.20;101356.72;4989755;28;20550;-45
2023/10/11 04:13:14;;;;;;;;;;;;;;;20.85;73.86;101352.94;4990606;28;20496;-45
2023/10/11 04:15:49;;;;;;;23.13;8.48;;;;;;;20.94;73.30;101350.94;4989563;28;20364;-44
2023/10/11 04:18:20;;;;;;;20.90;9.10;;;;;;;20.90;73.06;101348.41;4990155;28;20081;-45
2023/10/11 04:21:04;;;;;;;20.45;8.70;;;;;;;20.97;73.13;101340.28;4989735;28;20512;-45
2023/10/11 04:23:35;;;;;;;24.90;8.73;;;;;;;20.99;73.07;101335.78;4989969;28;20034;-44
2023/10/11 04:26:07;;;;;;;23.63;8.80;;;;;;;20.94;73.60;101340.34;4989731;28;20133;-45
2023/10/11 04:28:32;;;;;;;22.45;9.27;;;;;;;20.86;73.48;101342.25;4990009;28;20038;-49
2023/10/11 04:31:28;;;;;;;19.17;8.77;;;;;;;20.80;74.53;101350.34;4989508;28;20046;-44
2023/10/11 04:33:49;;;;;;;21.90;8.90;;;;;;;20.90;74.08;101345.75;4989486;28;20038;-46
2023/10/11 04:36:20;;;;;;;24.15;9.45;;;;;;;20.83;74.63;101341.47;4990561;28;20034;-44
2023/10/11 04:38:47;;;;;;;23.33;9.32;;;;;;;20.86;74.13;101352.88;4993325;28;20088;-48
2023/10/11 04:41:16;;;;;;;23.38;8.88;;;;;;;20.97;74.15;101350.00;4990034;28;20034;-44
2023/10/11 04:43:50;;;;;;;21.27;8.57;;;;;;;20.98;73.77;101347.31;4989268;28;20057;-46
2023/10/11 04:46:16;;;;;;;21.92;8.82;;;;;;;20.70;75.44;101355.88;4989687;28;20508;-44
2023/10/11 04:48:42;;;;;;;21.05;8.70;;;;;;;20.87;74.82;101353.75;4989349;28;20037;-45
2023/10/11 04:58:59;;;;;;;23.10;8.15;;;;;;;21.03;74.14;101332.19;4993351;28;20032;-49
2023/10/11 05:01:40;;;;;;;23.55;8.77;;;;;;;20.84;74.83;101345.88;4993410;28;20119;-45
2023/10/11 05:04:12;;;;;;;22.27;8.38;;;;;;;21.07;74.12;101354.19;4993167;28;20626;-46
2023/10/11 05:06:40;;;;;;;20.05;7.95;;;;;;;21.13;74.08;101348.75;4993149;28;20039;-44
2023/10/11 05:11:44;;;;;;;20.48;8.23;;;;;;;21.18;73.55;101333.63;4992822;28;20026;-52
2023/10/11 05:19:45;;;;;;;19.83;8.20;;;;;;;21.18;74.02;101343.38;4992655;28;20247;-44
2023/10/11 05:51:27;;;;;;;21.17;8.40;;;;;;;20.90;74.62;101327.19;4992745;28;20559;-45
2023/10/11 05:53:53;;;;;;;22.80;8.10;;;;;;;20.88;75.47;101335.16;4990519;28;20070;-46
2023/10/11 05:56:21;;;;;;;23.92;8.13;;;;;;;21.01;74.48;101333.13;4992466;28;20407;-48
2023/10/11 05:58:52;;;;;;;21.17;8.10;;;;;;;21.18;74.04;101333.63;4992077;28;20037;-45
2023/10/11 06:01:21;;;;;;;23.27;8.18;;;;;;;21.16;74.17;101343.44;4992433;28;20037;-45
2023/10/11 06:03:48;;;;;;;25.55;8.55;;;;;;;21.19;74.12;101339.81;4991777;28;20034;-44
2023/10/11 06:06:23;;;;;;;21.33;7.88;;;;;;;21.33;73.68;101351.88;4992121;28;20049;-44
2023/10/11 06:08:57;;;;;;;25.00;8.07;;;;;;;21.24;74.14;101352.06;4990706;28;20034;-48
2023/10/11 06:11:28;;;;;;;23.10;7.70;;;;;;;21.21;74.38;101352.16;4992461;28;20023;-47
2023/10/11 06:13:54;;;;;;;19.45;7.55;;;;;;;21.44;73.58;101349.81;4991721;28;20497;-44
2023/10/11 06:16:22;;;;;;;25.10;8.27;;;;;;;21.48;73.72;101360.34;4992817;28;20045;-44
2023/10/11 06:18:57;;;;;;;24.55;7.72;;;;;;;21.54;73.42;101354.88;4991553;28;20034;-45
2023/10/11 06:21:33;;;;;;;24.77;7.47;;;;;;;21.48;73.50;101355.03;4991760;28;20442;-48
2023/10/11 06:24:00;;;;;;;19.15;7.07;;;;;;;21.59;72.75;101361.00;4991841;28;20066;-44
2023/10/11 06:29:08;;;;;;;23.15;8.40;;;;;;;21.52;72.81;101368.22;4991423;28;20035;-47
2023/10/11 06:31:39;;;;;;;23.13;7.70;;;;;;;21.44;73.27;101364.88;4991176;28;20113;-48
2023/10/11 06:34:15;;;;;;;21.17;7.68;;;;;;;21.27;74.61;101370.56;4991419;28;20176;-46
2023/10/11 06:36:51;;;;;;;24.08;7.82;;;;;;;21.29;74.29;101354.59;5004708;28;20035;-45
2023/10/11 06:42:12;;;;;;;20.55;7.60;;;;;;;21.50;73.19;101351.47;4991107;28;20089;-45
2023/10/11 06:44:41;;;;;;;23.17;7.40;;;;;;;21.09;75.03;101349.75;4991090;28;20068;-47
2023/10/11 06:47:10;;;;;;;21.90;7.35;;;;;;;21.41;73.90;101356.97;4991255;28;20043;-45
2023/10/11 06:49:47;;;;;;;19.73;7.18;;;;;;;21.54;73.06;101369.03;4991253;28;20041;-44
2023/10/11 06:52:17;;;;;;;25.30;8.27;;;;;;;21.47;73.69;101369.25;4991188;28;20054;-44
2023/10/11 06:54:47;;;;;;;25.55;7.47;;;;;;;21.29;74.73;101368.72;4990916;28;20034;-47
2023/10/11 06:57:17;;;;;;;20.17;6.90;;;;;;;21.45;74.02;101375.44;4991267;28;20030;-46
2023/10/11 06:59:43;;;;;;;21.55;7.65;;;;;;;21.68;73.50;101368.72;4991018;28;20512;-45
2023/10/11 07:02:17;;;;;;;24.83;7.60;;;;;;;21.67;73.21;101378.44;4991051;28;20030;-47
2023/10/11 07:04:50;;;;;;;24.83;7.93;;;;;;;21.70;73.07;101388.13;4990491;28;20045;-46
2023/10/11 07:07:17;;;;;;;22.83;7.95;;;;;;;21.37;74.16;101387.13;4990837;28;20493;-46
2023/10/11 07:09:56;;;;;;;22.73;7.30;;;;;;;21.43;73.99;101379.03;4990546;28;20088;-44
2023/10/11 07:12:29;;;;;;;24.17;7.50;;;;;;;21.59;73.38;101385.72;4990929;28;20054;-45
2023/10/11 07:15:00;;;;;;;19.52;7.43;;;;;;;21.67;72.67;101389.06;4990088;28;20554;-44
2023/10/11 07:17:28;;;;;;;22.08;7.30;;;;;;;21.44;74.05;101391.41;4991046;28;20081;-45
2023/10/11 07:19:57;;;;;;;21.48;7.43;;;;;;;21.65;73.10;101387.38;4990418;28;20046;-45
2023/10/11 07:22:26;;;;;;;26.38;7.75;;;;;;;21.59;73.61;101392.81;4991026;28;20698;-44
2023/10/11 07:25:18;;;;;;;20.70;7.43;;;;;;;21.64;73.25;101406.84;4990570;28;20080;-43
2023/10/11 07:27:44;;;;;;;20.65;7.22;;;;;;;21.84;72.67;101381.56;4989958;28;20039;-46
2023/10/11 07:30:16;;;;;;;19.40;7.50;;;;;;;21.65;73.11;101380.25;4990765;28;20042;-46
2023/10/11 07:32:45;;;;;;;24.00;7.75;;;;;;;21.63;73.48;101384.75;4990031;28;20034;-45
2023/10/11 07:35:19;;;;;;;22.45;7.68;;;;;;;21.86;72.34;101384.19;4990899;28;20041;-44
2023/10/11 07:37:44;;;;;;;22.85;7.70;;;;;;;21.95;72.32;101391.97;4990064;28;20099;-44
2023/10/11 07:40:18;;;;;;;23.00;7.82;;;;;;;21.62;73.33;101387.44;4990495;28;20114;-45
2023/10/11 07:42:44;;;;;;;26.33;8.00;;;;;;;21.77;72.44;101395.03;4990280;28;20484;-45
2023/10/11 07:45:12;;;;;;;21.48;8.13;;;;;;;21.82;72.82;101391.34;4990897;28;20101;-43
2023/10/11 07:47:51;;;;;;;19.55;7.13;;;;;;;21.68;73.50;101398.78;4990240;28;20038;-44
2023/10/11 07:50:22;;;;;;;24.65;7.65;;;;;;;21.68;73.52;101396.13;4990880;28;20039;-44
2023/10/11 07:52:47;;;;;;;21.35;7.35;;;;;;;21.70;73.61;101402.28;4990156;28;20023;-46
2023/10/11 07:55:13;;;;;;;20.02;6.93;;;;;;;21.71;73.39;101411.94;4990869;28;20408;-46
2023/10/11 07:57:44;;;;;;;19.08;6.70;;;;;;;21.76;73.30;101410.09;4990181;28;20062;-46
2023/10/11 08:00:17;;;;;;;19.00;7.07;;;;;;;21.34;75.47;101414.63;4990506;28;20092;-46
2023/10/11 08:02:44;;;;;;;18.00;6.68;;;;;;;21.69;74.26;101410.25;4989808;28;20038;-46
2023/10/11 08:05:12;;;;;;;18.23;6.07;;;;;;;21.40;74.63;101434.81;4990231;28;20422;-47
2023/10/11 08:07:39;;;;;;;13.32;4.70;;;;;;;21.03;74.75;101427.63;4989734;28;20106;-44
2023/10/11 08:10:29;;;;;;;11.60;4.13;;;;;;;21.57;72.50;101419.38;4988958;28;20031;-47
2023/10/11 08:12:51;;;;;;;8.93;3.60;;;;;;;21.76;71.51;101423.34;4989745;28;20124;-49
2023/10/11 08:15:21;;;;;;;12.07;3.85;;;;;;;21.66;71.34;101427.13;4990456;28;20034;-45
2023/10/11 08:17:46;;;;;;;8.27;3.50;;;;;;;21.49;71.54;101413.38;4989532;28;20030;-48
2023/10/11 08:20:15;;;;;;;12.35;4.00;;;;;;;21.49;72.12;101415.16;4989986;28;20034;-46
2023/10/11 08:22:41;;;;;;;9.05;3.30;;;;;;;21.93;70.29;101419.41;4989532;28;20064;-49
2023/10/11 08:25:12;;;;;;;8.93;3.20;;;;;;;21.66;71.59;101412.97;4991269;28;20117;-46
2023/10/11 08:27:39;;;;;;;7.70;3.15;;;;;;;21.75;70.37;101421.59;4993950;28;20050;-44
2023/10/11 08:30:09;;;;;;;10.10;3.63;;;;;;;21.80;70.44;101432.09;4994156;28;20033;-42
2023/10/11 08:32:42;;;;;;;7.32;3.10;;;;;;;21.81;69.99;101412.63;4993724;28;20038;-43
2023/10/11 08:35:31;;;;;;;12.73;3.75;;;;;;;21.93;69.39;101416.75;4994106;28;20121;-45
2023/10/11 08:38:02;;;;;;;11.70;3.83;;;;;;;21.90;69.79;101414.16;4993506;28;20038;-43
2023/10/11 08:40:35;;;;;;;10.38;3.30;;;;;;;21.96;69.51;101403.41;4993926;28;20118;-46
2023/10/11 08:43:01;;;;;;;9.38;3.70;;;;;;;22.00;69.41;101407.75;4993489;28;20038;-46
2023/10/11 08:45:32;;;;;;;13.77;3.58;;;;;;;21.95;69.85;101405.22;4993736;28;20061;-44
2023/10/11 08:47:59;;;;;;;8.73;3.70;;;;;;;21.66;70.84;101420.94;4993356;28;20520;-45
2023/10/11 08:50:31;;;;;;;11.07;3.38;;;;;;;21.53;70.74;101419.50;4993642;28;20086;-45
2023/10/11 08:52:57;;;;;;;9.52;3.50;;;;;;;21.55;71.13;101418.53;4993377;28;20401;-47
2023/10/11 08:55:24;;;;;;;10.88;3.50;;;;;;;21.90;69.76;101403.53;4993946;28;20037;-44
2023/10/11 08:57:50;;;;;;;8.43;3.60;;;;;;;22.16;68.46;101403.78;4993415;28;20671;-45
2023/10/11 09:00:29;;;;;;;11.45;3.55;;;;;;;22.27;68.09;101401.72;4993618;28;20100;-48
2023/10/11 09:02:55;;;;;;;8.68;3.50;;;;;;;22.44;67.48;101398.63;4993454;28;20030;-43
2023/10/11 09:05:32;;;;;;;9.38;3.97;;;;;;;21.85;69.45;101411.63;4992937;28;20037;-43
2023/10/11 09:07:58;;;;;;;10.25;3.90;;;;;;;22.07;68.97;101418.19;4993523;28;20045;-45
2023/10/11 09:10:25;;;;;;;8.77;3.58;;;;;;;22.11;68.95;101417.19;4993516;28;20501;-44
2023/10/11 09:12:56;;;;;;;10.18;4.10;;;;;;;22.09;69.25;101420.78;4993245;28;20040;-45
2023/10/11 09:15:42;;;;;;;8.45;4.20;;;;;;;21.92;69.81;101418.53;4992732;28;20060;-45
2023/10/11 09:18:15;;;;;;;7.25;3.47;;;;;;;21.72;70.28;101434.06;4992693;28;20042;-45
2023/10/11 09:20:44;;;;;;;10.57;3.63;;;;;;;22.09;69.03;101428.75;4993115;28;20497;-49
2023/10/11 09:23:20;;;;;;;8.52;3.60;;;;;;;22.25;68.31;101446.94;4992768;28;20038;-43
2023/10/11 09:26:21;;;;;;;9.40;3.42;;;;;;;22.14;68.65;101443.66;4993197;28;20030;-43
2023/10/11 09:28:40;;;;;;;8.80;3.65;;;;;;;21.95;69.53;101444.16;4990584;28;20042;-45
2023/10/11 09:31:12;;;;;;;10.85;3.67;;;;;;;22.48;67.56;101440.16;4992296;28;20121;-48
2023/10/11 09:33:47;;;;;;;8.13;3.70;;;;;;;22.17;67.84;101440.06;4992943;28;20199;-46
2023/10/11 09:36:13;;;;;;;8.88;3.92;;;;;;;22.89;66.04;101431.91;4991943;28;20042;-44
2023/10/11 09:38:41;;;;;;;9.00;3.97;;;;;;;22.47;67.04;101431.28;4992338;28;20038;-45
2023/10/11 09:41:07;;;;;;;9.35;3.95;;;;;;;22.71;66.72;101429.75;4992155;28;20039;-45
2023/10/11 09:43:44;;;;;;;11.20;4.20;;;;;;;23.18;65.72;101439.03;4993058;28;20465;-43
2023/10/11 09:46:13;;;;;;;11.73;4.20;;;;;;;23.01;65.58;101439.53;4992669;28;20475;-44
2023/10/11 09:48:42;;;;;;;10.95;4.13;;;;;;;22.73;67.23;101435.94;4992777;28;20038;-43
2023/10/11 09:51:14;;;;;;;9.18;3.80;;;;;;;22.76;67.18;101419.88;4992632;28;20092;-45
2023/10/11 09:53:50;;;;;;;13.30;4.50;;;;;;;22.76;66.28;101437.63;4992696;28;20622;-47
2023/10/11 09:56:35;;;;;;;9.73;4.13;;;;;;;23.33;65.54;101437.72;4992546;28;20030;-45
2023/10/11 09:59:06;;;;;;;11.85;4.10;;;;;;;23.36;65.55;101432.31;4992053;28;20042;-45
2023/10/11 10:02:12;;;;;;;13.07;4.30;;;;;;;23.26;64.75;101422.88;4992434;28;20118;-46
2023/10/11 10:04:50;;;;;;;13.18;4.28;;;;;;;23.49;64.06;101420.38;4971556;28;20038;-45
2023/10/11 10:07:32;;;;;;;8.05;3.72;;;;;;;23.60;64.65;101420.06;4991633;28;20041;-47
2023/10/11 10:10:00;;;;;;;9.63;3.80;;;;;;;23.51;64.02;101428.34;4991641;28;20034;-44
2023/10/11 10:12:31;;;;;;;8.05;3.55;;;;;;;23.64;63.75;101435.91;4993302;28;20034;-44
2023/10/11 10:15:07;;;;;;;7.53;3.50;;;;;;;23.52;63.98;101432.75;4995239;28;20039;-44
2023/10/11 10:17:39;;;;;;;7.78;3.47;;;;;;;23.64;63.81;101433.22;4992569;28;20039;-45
2023/10/11 10:21:02;;;;;;;10.15;3.28;;;;;;;23.77;63.72;101429.25;4992077;28;20125;-44
2023/10/11 10:23:21;;;;;;;5.05;2.88;;;;;;;24.22;61.81;101418.88;4990946;28;20042;-46
2023/10/11 10:25:48;;;;;;;6.30;3.30;;;;;;;24.02;62.11;101415.13;4991989;28;20035;-42
2023/10/11 10:28:45;;;;;;;7.90;3.20;;;;;;;24.73;60.15;101403.75;4991114;28;20397;-45
2023/10/11 10:31:16;;;;;;;9.85;3.30;;;;;;;24.77;59.19;101378.72;4982106;28;20785;-45
2023/10/11 10:33:43;;;;;;;11.15;3.67;;;;;;;25.08;58.30;101373.97;4991628;28;20041;-44
2023/10/11 10:36:17;;;;;;;7.47;3.10;;;;;;;24.73;60.15;101385.97;4991383;28;20042;-44
2023/10/11 10:41:32;;;;;;;10.25;3.40;;;;;;;24.66;60.83;101381.78;4984846;28;20038;-47
2023/10/11 10:44:10;;;;;;;8.02;3.17;;;;;;;24.53;60.74;101381.34;4990908;28;20390;-47
2023/10/11 10:46:45;;;;;;;9.32;3.22;;;;;;;24.20;61.88;101377.25;4991424;28;20042;-47
2023/10/11 10:49:11;;;;;;;10.18;2.90;;;;;;;24.41;61.17;101387.13;4990947;28;20049;-46
2023/10/11 10:51:37;;;;;;;12.00;3.40;;;;;;;24.35;61.65;101378.47;4991188;28;20054;-44
2023/10/11 10:54:12;;;;;;;9.07;3.40;;;;;;;24.48;61.16;101366.47;4990806;28;20041;-44
2023/10/11 10:56:39;;;;;;;10.10;3.10;;;;;;;24.24;63.12;101373.53;4991106;28;20117;-48
2023/10/11 10:59:07;;;;;;;9.60;3.45;;;;;;;23.99;62.85;101354.84;4990821;28;20089;-44
2023/10/11 11:01:34;;;;;;;9.30;3.22;;;;;;;23.99;63.29;101364.63;4991231;28;20073;-45
2023/10/11 11:04:06;;;;;;;9.63;3.30;;;;;;;23.98;63.37;101374.41;4990615;28;20097;-45
2023/10/11 11:06:45;;;;;;;11.02;3.33;;;;;;;23.94;62.78;101369.25;4991033;28;20125;-47
2023/10/11 11:09:18;;;;;;;8.13;3.22;;;;;;;24.12;63.38;101382.78;4990665;28;20039;-44
2023/10/11 11:11:49;;;;;;;10.52;3.38;;;;;;;24.89;60.98;101372.94;4990966;28;20034;-46
2023/10/11 11:14:19;;;;;;;12.25;3.70;;;;;;;24.50;61.41;101380.63;4990286;28;20030;-45
2023/10/11 11:16:54;;;;;;;11.52;3.40;;;;;;;24.63;60.82;101376.56;4990707;28;20088;-45
2023/10/11 11:19:25;;;;;;;12.20;3.25;;;;;;;24.83;60.87;101379.34;4988928;28;20109;-46
2023/10/11 11:22:11;;;;;;;10.52;3.47;;;;;;;24.56;61.86;101370.59;4989383;28;20404;-45
2023/10/11 11:24:38;;;;;;;7.63;3.30;;;;;;;24.99;60.53;101369.91;4990359;28;20461;-47
2023/10/11 11:27:14;;;;;;;8.52;3.30;;;;;;;24.26;62.50;101371.69;4990029;28;20042;-46
2023/10/11 11:29:39;;;;;;;7.68;3.17;;;;;;;24.87;61.92;101372.13;4990728;28;20069;-44
2023/10/11 11:32:18;;;;;;;8.85;3.38;;;;;;;25.22;60.03;101373.47;4990134;28;20034;-44
2023/10/11 11:35:09;;;;;;;9.45;3.22;;;;;;;24.60;60.70;101380.22;4990707;28;20500;-46
2023/10/11 11:37:38;;;;;;;10.60;3.20;;;;;;;25.03;59.26;101374.16;4990291;28;20040;-48
2023/10/11 11:40:24;;;;;;;8.48;3.13;;;;;;;24.83;59.79;101383.81;4990195;28;20034;-44
2023/10/11 11:42:49;;;;;;;9.23;3.33;;;;;;;24.76;60.06;101385.00;4990541;28;20503;-44
2023/10/11 11:45:16;;;;;;;8.82;3.40;;;;;;;24.58;61.82;101381.19;4990388;28;20037;-46
2023/10/11 11:47:57;;;;;;;9.73;3.35;;;;;;;24.84;60.29;101362.44;4990518;28;20030;-45
2023/10/11 11:50:30;;;;;;;8.10;2.90;;;;;;;25.07;60.09;101376.75;4990603;28;20065;-45
2023/10/11 11:52:57;;;;;;;8.63;3.40;;;;;;;24.57;61.54;101371.47;4990338;28;20145;-45
2023/10/11 11:55:23;;;;;;;10.95;3.50;;;;;;;24.61;61.32;101375.75;4990856;28;20041;-44
2023/10/11 11:57:50;;;;;;;8.60;3.40;;;;;;;24.70;60.69;101372.75;4990565;28;20030;-46
2023/10/11 12:00:38;;;;;;;8.50;3.58;;;;;;;24.39;62.36;101370.34;4989795;28;20062;-42
2023/10/11 12:03:04;;;;;;;9.25;3.40;;;;;;;24.39;62.70;101370.34;4990501;28;20065;-45
2023/10/11 12:05:37;;;;;;;11.15;3.55;;;;;;;24.31;62.34;101369.75;4990548;28;20143;-49
2023/10/11 12:08:03;;;;;;;10.82;3.47;;;;;;;24.54;61.03;101366.25;4989708;28;20073;-45
2023/10/11 12:10:29;;;;;;;9.43;3.38;;;;;;;24.07;62.86;101365.25;4990334;28;20722;-45
2023/10/11 12:13:05;;;;;;;10.88;3.55;;;;;;;23.98;63.07;101371.72;4989444;28;20035;-46
2023/10/11 12:15:32;;;;;;;14.05;3.50;;;;;;;24.52;62.43;101365.41;4989927;28;20110;-47
2023/10/11 12:17:57;;;;;;;11.43;3.58;;;;;;;24.50;62.25;101360.16;4989453;28;20058;-46
2023/10/11 12:20:22;;;;;;;10.27;3.58;;;;;;;24.82;60.53;101352.75;4990082;28;20085;-44
2023/10/11 12:22:50;;;;;;;11.05;3.60;;;;;;;24.46;61.65;101342.53;4988927;28;20033;-46
2023/10/11 12:25:24;;;;;;;11.05;3.67;;;;;;;24.78;60.26;101348.44;4990237;28;20034;-45
2023/10/11 12:27:50;;;;;;;10.00;3.60;;;;;;;24.72;60.50;101346.03;4990156;28;20035;-45
2023/10/11 12:30:22;;;;;;;12.38;3.70;;;;;;;24.96;59.78;101340.66;4989437;28;20515;-45
2023/10/11 12:32:49;;;;;;;11.45;3.60;;;;;;;24.82;60.58;101344.75;4989727;28;20118;-47